Point Reyes Station, California
Current Conditions -  °F | °C
As of 6:15 PM on Saturday 22 Nov 2014 (Local Time) from KDVO Reporting Station
Clear Clear  
Wind Chill: 15°   Ceiling: Unl
Heat Index: 15°   Visibility: NA
Dew Point:   Wind: 12mph
Humidity: 63%   Direction: 310°NW
Pressure: 30.17"   Gusts: NA
Location:  38.07°N, 122.81°W
Report Text: KDVO 230215Z AUTO 31010KT CLR 15/08 A3017 RMK AO2
Loading
Personal Weather Stations






























Interactive Weather Map New forecast layout! Learn more

10-Day Weather Forecast

Advertisements
Track Severe Weather on mobile